Latest Weather Observations for Gympie

IDQ60801

Issued at 5:35 pm EST Thursday 31 July 2014 (issued every 30 minutes, with the page automatically refreshed every 10 minutes)

About weather observations | Map of weather stations | Latest weather observations for QLD | Other Formats
Station Details ID: 040093 Name: GYMPIE Lat: -26.18 Lon: 152.64 Height: 64.5 m
Data from the previous 72 hours. | See also: Recent months at Gympie
Date/Time
EST
Temp
°C
App
Temp
°C
Dew
Point
Rel
Hum
%
Delta-T
°C
Wind Press
QNH
hPa
Press
MSL
hPa
Rain
since 9 am
mm
Dir
 
Spd
km/h
Gust
km/h
Spd
kts
Gust
kts
31/05:30pm 21.4 19.0 6.9 39 7.4 NE 9 17 5 9 1016.6 - 0.0
31/05:00pm 22.8 19.3 7.4 37 8.0 NNE 15 28 8 15 1016.3 1016.3 0.0
31/04:30pm 24.2 21.3 6.5 32 9.2 N 11 17 6 9 1016.2 - 0.0
31/04:00pm 24.7 21.5 6.9 32 9.3 NNW 13 22 7 12 1016.0 1016.0 0.0
31/03:30pm 24.9 22.2 5.7 29 9.8 NNE 9 19 5 10 1016.0 - 0.0
31/03:00pm 24.8 21.3 5.6 29 9.8 N 13 20 7 11 1016.3 1016.3 0.0
31/02:30pm 25.0 21.6 5.7 29 9.9 N 13 20 7 11 1016.6 - 0.0
31/02:00pm 24.8 22.2 4.0 26 10.3 N 7 17 4 9 1017.0 1017.0 0.0
31/01:30pm 24.8 21.9 4.5 27 10.2 N 9 19 5 10 1017.5 - 0.0
31/01:00pm 24.5 21.9 4.3 27 10.0 N 7 17 4 9 1018.0 1018.0 0.0
31/12:30pm 24.3 22.0 5.6 30 9.5 NW 7 19 4 10 1018.6 - 0.0
31/12:00pm 23.6 21.1 8.1 37 8.2 NNW 11 19 6 10 1019.4 1019.4 0.0
31/11:30am 23.0 20.4 9.4 42 7.4 N 13 20 7 11 1020.1 - 0.0
31/11:00am 22.5 20.8 11.3 49 6.2 WNW 11 17 6 9 1020.7 1020.7 0.0
31/10:30am 19.7 19.4 11.5 59 4.5 SSW 4 6 2 3 1021.5 - 0.0
31/10:00am 17.3 16.6 10.2 63 3.8 S 4 4 2 2 1022.0 1022.0 0.0
31/09:30am 14.7 14.1 9.1 69 2.9 SSW 2 4 1 2 1022.4 - 0.0
31/09:00am 12.5 12.2 8.8 78 1.8 CALM 0 0 0 0 1022.7 1022.7 0.0
31/08:30am 10.4 9.9 7.8 84 1.3 CALM 0 0 0 0 1022.6 - 0.0
31/08:00am 8.3 7.7 7.2 93 0.5 CALM 0 0 0 0 1022.4 1022.4 0.0
31/07:30am 6.3 5.4 5.9 97 0.2 CALM 0 0 0 0 1022.0 - 0.0
31/07:00am 4.7 3.5 4.6 99 0.0 CALM 0 0 0 0 1021.8 1021.8 0.0
31/06:30am 4.4 3.1 4.1 98 0.1 CALM 0 0 0 0 1021.5 - 0.0
31/06:00am 4.5 3.2 4.2 98 0.1 W 0 0 0 0 1021.3 1021.3 0.0
31/05:30am 4.9 3.7 4.6 98 0.1 CALM 0 0 0 0 1021.0 - 0.0
31/05:00am 4.7 3.4 4.1 96 0.3 CALM 0 0 0 0 1020.8 1020.8 0.0
31/04:30am 5.6 4.5 5.3 98 0.1 CALM 0 0 0 0 1020.8 - 0.0
31/04:00am 5.7 4.6 5.3 97 0.2 CALM 0 0 0 0 1020.9 1020.9 0.0
31/03:30am 5.5 4.4 4.9 96 0.3 CALM 0 0 0 0 1020.9 - 0.0
31/03:00am 6.6 5.7 6.2 97 0.2 CALM 0 0 0 0 1020.9 1020.9 0.0
31/02:30am 6.3 5.3 5.7 96 0.3 CALM 0 0 0 0 1020.8 - 0.0
31/02:00am 6.7 5.8 6.0 95 0.3 CALM 0 0 0 0 1021.0 1021.0 0.0
31/01:30am 7.8 7.2 7.4 97 0.2 CALM 0 0 0 0 1021.1 - 0.0
31/01:00am 6.9 6.0 6.0 94 0.4 CALM 0 0 0 0 1021.3 1021.3 0.0
31/12:30am 7.9 7.3 7.3 96 0.3 CALM 0 0 0 0 1021.3 - 0.0
31/12:00am 8.1 7.1 7.2 94 0.4 SSW 2 4 1 2 1021.4 1021.4 0.0
 
Date/Time
EST
Temp
°C
App
Temp
°C
Dew
Point
Rel
Hum
%
Delta-T
°C
Wind Press
QNH
hPa
Press
MSL
hPa
Rain
since 9 am
mm
Dir
 
Spd
km/h
Gust
km/h
Spd
kts
Gust
kts
30/11:30pm 8.8 8.2 7.6 92 0.6 CALM 0 0 0 0 1021.2 - 0.0
30/11:00pm 10.1 9.8 8.5 90 0.8 CALM 0 0 0 0 1021.5 1021.5 0.0
30/10:30pm 10.7 10.4 8.6 87 1.0 CALM 0 0 0 0 1021.5 - 0.0
30/10:00pm 11.9 10.5 8.9 82 1.5 N 6 7 3 4 1021.5 1021.5 0.0
30/09:30pm 12.6 11.7 9.4 81 1.6 N 4 6 2 3 1021.6 - 0.0
30/09:00pm 13.6 12.8 9.5 76 2.1 N 4 6 2 3 1021.5 1021.5 0.0
30/08:30pm 14.8 14.9 10.0 73 2.5 CALM 0 0 0 0 1021.4 - 0.0
30/08:00pm 15.7 15.7 9.8 68 3.1 CALM 0 0 0 0 1020.9 1020.9 0.0
30/07:30pm 16.1 15.6 9.3 64 3.5 N 2 6 1 3 1020.5 - 0.0
30/07:00pm 18.7 17.9 9.8 56 4.7 NE 4 7 2 4 1020.2 1020.2 0.0
30/06:30pm 19.7 18.6 9.9 53 5.3 NE 6 9 3 5 1019.8 - 0.0
30/06:00pm 20.9 19.4 9.2 47 6.2 NNE 7 13 4 7 1019.5 1019.5 0.0
30/05:30pm 21.4 20.1 7.6 41 7.2 N 4 6 2 3 1018.9 - 0.0
30/05:00pm 23.8 21.8 7.0 34 8.7 N 7 9 4 5 1018.7 1018.7 0.0
30/04:30pm 24.7 22.9 7.8 34 9.0 N 7 13 4 7 1018.5 - 0.0
30/04:00pm 25.1 22.3 6.8 31 9.5 N 11 19 6 10 1018.2 1018.2 0.0
30/03:30pm 25.4 22.9 6.6 30 9.8 N 9 17 5 9 1018.0 - 0.0
30/03:00pm 25.2 22.9 7.3 32 9.4 N 9 13 5 7 1018.2 1018.2 0.0
30/02:30pm 25.3 23.1 7.9 33 9.3 N 9 17 5 9 1018.4 - 0.0
30/02:00pm 24.8 22.1 7.4 33 9.2 N 11 24 6 13 1018.8 1018.8 0.0
30/01:30pm 24.9 22.7 8.0 34 9.0 N 9 17 5 9 1019.3 - 0.0
30/01:00pm 24.6 21.9 7.3 33 9.1 N 11 19 6 10 1019.8 1019.8 0.0
30/12:30pm 24.1 21.7 8.5 37 8.4 N 11 24 6 13 1020.4 - 0.0
30/12:00pm 23.4 21.3 9.8 42 7.4 NNW 11 22 6 12 1021.1 1021.1 0.0
30/11:30am 22.5 20.9 10.3 46 6.7 N 9 15 5 8 1021.8 - 0.0
30/11:00am 21.8 20.7 10.6 49 6.1 N 7 15 4 8 1022.5 1022.5 0.0
30/10:30am 20.1 20.1 11.3 57 4.9 ESE 2 6 1 3 1023.2 - 0.0
30/10:00am 18.4 18.9 11.5 64 3.8 CALM 0 4 0 2 1023.6 1023.5 0.0
30/09:30am 16.2 16.1 10.9 71 2.8 N 2 4 1 2 1024.0 - 0.0
30/09:00am 13.1 12.2 9.4 78 1.9 NNE 4 6 2 3 1024.3 1024.2 0.0
30/08:30am 10.6 10.2 8.4 86 1.1 CALM 0 0 0 0 1024.3 - 0.0
30/08:00am 8.1 7.5 7.2 94 0.4 CALM 0 0 0 0 1024.2 1024.1 0.0
30/07:30am 6.2 4.9 6.1 99 0.0 S 2 4 1 2 1024.0 - 0.0
30/07:00am 4.7 2.7 4.6 99 0.0 N 4 6 2 3 1023.5 1023.4 0.0
30/06:30am 4.9 3.7 4.8 99 0.0 CALM 0 0 0 0 1023.5 - 0.0
30/06:00am 5.1 4.0 5.0 99 0.0 CALM 0 0 0 0 1023.2 1023.1 0.0
30/05:30am 5.2 4.1 4.9 98 0.1 CALM 0 0 0 0 1022.6 - 0.0
30/05:00am 5.3 4.2 5.0 98 0.1 CALM 0 0 0 0 1022.5 1022.5 0.0
30/04:30am 5.6 4.5 5.3 98 0.1 CALM 0 0 0 0 1022.1 - 0.0
30/04:00am 5.8 4.8 5.4 97 0.2 CALM 0 0 0 0 1022.1 1022.1 0.0
30/03:30am 6.3 5.4 6.0 98 0.1 CALM 0 0 0 0 1022.1 - 0.0
30/03:00am 6.5 5.6 6.1 97 0.2 CALM 0 0 0 0 1021.9 1021.9 0.0
30/02:30am 6.9 6.1 6.5 97 0.2 CALM 0 0 0 0 1022.0 - 0.0
30/02:00am 7.0 6.2 6.6 97 0.2 CALM 0 0 0 0 1022.0 1022.0 0.0
30/01:30am 7.6 7.0 7.2 97 0.2 CALM 0 0 0 0 1021.9 - 0.0
30/01:00am 8.3 7.8 7.9 97 0.2 CALM 0 0 0 0 1022.0 1022.0 0.0
30/12:30am 8.0 7.4 7.2 95 0.4 CALM 0 0 0 0 1022.2 - 0.0
30/12:00am 8.5 7.9 7.4 93 0.5 CALM 0 0 0 0 1022.2 1022.2 0.0
 
Date/Time
EST
Temp
°C
App
Temp
°C
Dew
Point
Rel
Hum
%
Delta-T
°C
Wind Press
QNH
hPa
Press
MSL
hPa
Rain
since 9 am
mm
Dir
 
Spd
km/h
Gust
km/h
Spd
kts
Gust
kts
29/11:30pm 8.9 8.0 7.8 93 0.5 SW 2 6 1 3 1022.1 - 0.0
29/11:00pm 9.7 9.4 8.6 93 0.5 CALM 0 0 0 0 1022.0 1022.0 0.0
29/10:30pm 10.3 10.0 8.7 90 0.8 CALM 0 0 0 0 1022.1 - 0.0
29/10:00pm 10.5 10.1 8.4 87 1.0 CALM 0 0 0 0 1022.0 1022.0 0.0
29/09:30pm 11.4 11.3 9.3 87 1.1 CALM 0 0 0 0 1021.7 - 0.0
29/09:00pm 12.7 12.4 10.1 84 1.3 N 2 4 1 2 1021.5 1021.5 0.0
29/08:30pm 13.1 12.6 9.5 79 1.8 N 2 4 1 2 1021.6 - 0.0
29/08:00pm 14.0 13.2 9.8 76 2.2 N 4 6 2 3 1021.5 1021.5 0.0
29/07:30pm 15.0 14.6 9.8 71 2.7 SSE 2 4 1 2 1021.2 - 0.0
29/07:00pm 18.1 17.3 11.2 64 3.7 NNE 6 11 3 6 1020.5 1020.5 0.0
29/06:30pm 18.8 17.7 10.6 59 4.4 NNE 7 11 4 6 1020.2 - 0.0
29/06:00pm 18.4 16.9 6.6 46 5.9 NNE 4 4 2 2 1019.6 1019.6 0.0
29/05:30pm 20.0 18.2 5.6 39 7.1 N 4 6 2 3 1019.4 - 0.0
29/05:00pm 23.6 22.3 4.0 28 9.6 CALM 0 2 0 1 1019.1 1019.1 0.0
29/04:30pm 24.7 23.3 3.4 25 10.4 CALM 0 0 0 0 1019.1 - 0.0
29/04:00pm 25.6 23.7 2.9 23 11.1 WNW 2 4 1 2 1019.0 1019.0 0.0
29/03:30pm 26.1 23.6 4.0 24 11.1 W 6 13 3 7 1018.8 - 0.0
29/03:00pm 25.9 23.5 4.4 25 10.8 WSW 6 11 3 6 1018.8 1018.8 0.0
29/02:30pm 25.4 23.4 4.5 26 10.5 W 4 15 2 8 1018.9 - 0.0
29/02:00pm 24.8 21.7 5.6 29 9.8 NNW 11 22 6 12 1019.2 1019.2 0.0
29/01:30pm 24.5 21.8 5.8 30 9.6 W 9 19 5 10 1019.8 - 0.0
29/01:00pm 24.1 22.4 8.5 37 8.3 WNW 7 15 4 8 1020.2 1020.2 0.0
29/12:30pm 23.2 21.3 8.9 40 7.7 N 9 17 5 9 1020.7 - 0.0
29/12:00pm 22.3 20.1 9.5 44 6.9 N 11 17 6 9 1021.3 1021.3 0.0
29/11:30am 21.4 19.0 9.9 48 6.2 N 13 22 7 12 1022.0 - 0.0
29/11:00am 21.6 20.3 11.3 52 5.7 NW 9 17 5 9 1022.6 1022.6 0.0
29/10:30am 20.3 19.4 11.5 57 4.9 NW 7 17 4 9 1022.9 - 0.0
29/10:00am 16.1 16.1 9.8 66 3.3 CALM 0 2 0 1 1023.4 1023.3 0.0
29/09:30am 14.0 13.8 9.2 73 2.5 CALM 0 4 0 2 1023.8 - 0.0
29/09:00am 10.9 10.1 8.0 82 1.4 SE 2 4 1 2 1024.1 1024.0 0.0
29/08:30am 8.9 8.3 7.4 90 0.7 CALM 0 4 0 2 1024.1 - 0.0
29/08:00am 6.3 5.4 6.2 99 0.0 CALM 0 2 0 1 1024.0 1023.9 0.0
29/07:30am 4.8 3.6 4.7 99 0.0 CALM 0 0 0 0 1023.8 - 0.0
29/07:00am 3.4 2.0 3.3 99 0.0 CALM 0 0 0 0 1023.5 1023.4 0.0
29/06:30am 3.5 2.1 3.4 99 0.0 CALM 0 0 0 0 1023.3 - 0.0
29/06:00am 3.5 2.1 3.4 99 0.0 CALM 0 0 0 0 1022.7 1022.7 0.0
29/05:30am 3.8 2.4 3.5 98 0.1 CALM 0 0 0 0 1022.2 - 0.0
29/05:00am 4.2 2.9 4.1 99 0.0 CALM 0 0 0 0 1022.0 1022.0 0.0
29/04:30am 4.2 2.9 4.1 99 0.0 CALM 0 0 0 0 1021.8 - 0.0
29/04:00am 4.7 3.5 4.6 99 0.0 CALM 0 0 0 0 1021.7 1021.7 0.0
29/03:30am 5.0 3.9 4.9 99 0.0 CALM 0 0 0 0 1021.8 - 0.0
29/03:00am 5.0 3.8 4.7 98 0.1 CALM 0 0 0 0 1021.8 1021.8 0.0
29/02:30am 5.5 4.4 5.1 97 0.2 CALM 0 0 0 0 1022.0 - 0.0
29/02:00am 5.8 4.8 5.4 97 0.2 CALM 0 0 0 0 1022.1 1022.1 0.0
29/01:30am 6.2 5.2 5.8 97 0.2 CALM 0 0 0 0 1022.1 - 0.0
29/01:00am 6.5 5.6 5.9 96 0.3 CALM 0 0 0 0 1022.4 1022.4 0.0
29/12:30am 6.8 5.9 6.2 96 0.3 CALM 0 4 0 2 1022.6 - 0.0
29/12:00am 7.4 6.6 6.7 95 0.3 CALM 0 0 0 0 1022.8 1022.8 0.0
 
Date/Time
EST
Temp
°C
App
Temp
°C
Dew
Point
Rel
Hum
%
Delta-T
°C
Wind Press
QNH
hPa
Press
MSL
hPa
Rain
since 9 am
mm
Dir
 
Spd
km/h
Gust
km/h
Spd
kts
Gust
kts
28/11:30pm 7.5 6.7 6.3 92 0.5 CALM 0 0 0 0 1022.9 - 0.0
28/11:00pm 8.1 7.4 7.0 93 0.5 CALM 0 0 0 0 1022.8 1022.8 0.0
28/10:30pm 8.9 8.4 7.7 92 0.6 CALM 0 0 0 0 1022.9 - 0.0
28/10:00pm 8.7 8.0 6.8 88 0.9 CALM 0 0 0 0 1022.9 1022.9 0.0
28/09:30pm 9.6 9.0 7.4 86 1.0 CALM 0 0 0 0 1022.7 - 0.0
28/09:00pm 10.9 10.5 8.3 84 1.3 CALM 0 0 0 0 1022.5 1022.5 0.0
28/08:30pm 11.8 11.5 8.5 80 1.6 CALM 0 0 0 0 1022.4 - 0.0
28/08:00pm 12.8 12.6 8.9 77 2.0 CALM 0 0 0 0 1022.0 1022.0 0.0
28/07:30pm 13.1 12.3 6.7 65 3.1 CALM 0 0 0 0 1021.8 - 0.0
28/07:00pm 15.3 14.4 7.8 61 3.7 NNE 2 4 1 2 1021.5 1021.5 0.0
28/06:30pm 15.6 14.8 8.1 61 3.8 SSW 2 4 1 2 1021.1 - 0.0
28/06:00pm 17.2 15.2 4.2 42 6.1 N 4 6 2 3 1020.6 1020.6 0.0

Other Formats:

Comma delimited format used in spreadsheet applications
http://www.bom.gov.au/fwo/IDQ60801/IDQ60801.94566.axf

JavaScript Object Notation format (JSON) in row-major order
http://www.bom.gov.au/fwo/IDQ60801/IDQ60801.94566.json